Time;durP1;ratioP1;P1;durP2;ratioP2;P2;SDS_P1;SDS_P2;PMS_P1;PMS_P2;Temp;Humidity;BMP_temperature;BMP_pressure;BME280_temperature;BME280_humidity;BME280_pressure;Samples;Min_cycle;Max_cycle;Signal;HPM_P1;HPM_P2
2022/06/06 00:00:11;;;;;;;623.90;591.87;;;15.60;99.90;;;;;;5012154;28;20992;-79
2022/06/06 00:02:38;;;;;;;639.07;606.37;;;15.70;99.90;;;;;;5013342;28;20513;-79
2022/06/06 00:05:06;;;;;;;646.73;612.97;;;15.60;99.90;;;;;;5012755;28;20462;-79
2022/06/06 00:07:33;;;;;;;676.67;639.60;;;15.80;99.90;;;;;;5013217;28;20458;-80
2022/06/06 00:10:00;;;;;;;660.53;625.77;;;15.80;99.90;;;;;;5011847;28;20471;-81
2022/06/06 00:12:27;;;;;;;690.23;652.73;;;15.90;99.90;;;;;;5012813;28;20451;-80
2022/06/06 00:14:55;;;;;;;693.43;655.70;;;15.80;99.90;;;;;;5012938;28;20580;-82
2022/06/06 00:17:22;;;;;;;681.27;643.07;;;15.90;99.90;;;;;;5012880;28;20451;-83
2022/06/06 00:19:49;;;;;;;679.13;640.97;;;16.00;99.90;;;;;;5011980;28;20459;-79
2022/06/06 00:22:16;;;;;;;678.77;639.97;;;16.00;99.90;;;;;;5012590;28;20451;-79
2022/06/06 00:24:42;;;;;;;697.33;657.17;;;15.90;99.90;;;;;;5012905;28;20462;-81
2022/06/06 00:27:09;;;;;;;709.90;666.87;;;15.90;99.90;;;;;;5012704;28;20460;-80
2022/06/06 00:29:36;;;;;;;704.87;662.20;;;15.90;99.90;;;;;;5012235;28;20460;-79
2022/06/06 00:34:49;;;;;;;695.97;654.10;;;15.90;99.90;;;;;;5012662;28;20481;-79
2022/06/06 00:37:20;;;;;;;708.70;664.80;;;15.90;99.90;;;;;;5012069;28;20459;-79
2022/06/06 00:39:46;;;;;;;698.43;655.83;;;15.80;99.90;;;;;;5011757;28;20454;-79
2022/06/06 00:42:17;;;;;;;710.30;666.77;;;15.80;99.90;;;;;;5012533;28;20475;-81
2022/06/06 00:44:44;;;;;;;699.47;655.93;;;15.90;99.90;;;;;;5012585;28;20451;-80
2022/06/06 00:47:21;;;;;;;697.03;654.33;;;15.80;99.90;;;;;;5012596;28;20828;-79
2022/06/06 00:49:52;;;;;;;701.47;657.87;;;15.90;99.90;;;;;;5011578;28;20464;-81
2022/06/06 00:52:23;;;;;;;708.10;665.00;;;15.90;99.90;;;;;;5012051;28;22269;-79
2022/06/06 00:54:53;;;;;;;684.07;643.77;;;15.90;99.90;;;;;;4992831;28;20491;-80
2022/06/06 00:57:23;;;;;;;680.13;639.70;;;16.00;99.90;;;;;;5008907;28;20643;-79
2022/06/06 00:59:50;;;;;;;667.33;628.67;;;16.00;99.90;;;;;;5012217;28;20489;-82
2022/06/06 01:02:19;;;;;;;682.70;642.93;;;16.00;99.90;;;;;;5012003;28;20456;-80
2022/06/06 01:04:47;;;;;;;681.60;642.53;;;16.00;99.90;;;;;;5012476;28;20455;-79
2022/06/06 01:07:13;;;;;;;681.50;641.60;;;16.00;99.90;;;;;;5011882;28;20455;-80
2022/06/06 01:09:42;;;;;;;645.73;611.20;;;16.00;99.90;;;;;;5012208;28;20837;-79
2022/06/06 01:12:16;;;;;;;643.60;609.67;;;16.00;99.90;;;;;;5012408;28;20880;-82
2022/06/06 01:14:46;;;;;;;602.57;573.07;;;16.00;99.90;;;;;;5012387;28;21031;-79
2022/06/06 01:17:27;;;;;;;577.83;551.53;;;16.00;99.90;;;;;;5012332;28;20459;-79
2022/06/06 01:20:08;;;;;;;551.40;527.40;;;16.00;99.90;;;;;;5013296;28;20478;-79
2022/06/06 01:23:06;;;;;;;576.40;549.20;;;16.10;99.90;;;;;;5016004;28;20453;-79
2022/06/06 01:25:52;;;;;;;562.83;537.10;;;16.10;99.90;;;;;;5016410;28;20450;-80
2022/06/06 01:28:45;;;;;;;559.00;533.80;;;16.10;99.90;;;;;;5015741;28;20458;-80
2022/06/06 01:31:18;;;;;;;563.03;538.47;;;16.10;99.90;;;;;;5015945;28;20467;-80
2022/06/06 01:33:52;;;;;;;566.73;541.53;;;16.10;99.90;;;;;;5016386;28;20564;-78
2022/06/06 01:36:19;;;;;;;569.30;544.37;;;16.00;99.90;;;;;;5015457;28;20457;-80
2022/06/06 01:38:46;;;;;;;596.50;569.90;;;16.00;99.90;;;;;;5014842;28;20460;-80
2022/06/06 01:41:18;;;;;;;557.00;532.83;;;16.00;99.90;;;;;;5016730;28;20890;-79
2022/06/06 01:43:51;;;;;;;522.17;500.30;;;16.00;99.90;;;;;;5016481;28;20515;-80
2022/06/06 01:46:22;;;;;;;488.47;468.60;;;16.00;99.90;;;;;;5016091;28;20804;-80
2022/06/06 01:48:50;;;;;;;467.43;449.43;;;16.00;99.90;;;;;;5029411;28;21003;-80
2022/06/06 01:51:20;;;;;;;509.07;488.67;;;16.00;99.90;;;;;;5035301;28;20501;-80
2022/06/06 01:53:47;;;;;;;516.37;494.73;;;15.90;99.90;;;;;;5026527;28;20529;-83
2022/06/06 01:56:16;;;;;;;529.23;507.10;;;15.90;99.90;;;;;;5015972;28;20811;-80
2022/06/06 01:58:43;;;;;;;483.13;463.90;;;15.90;99.90;;;;;;5015282;28;20452;-80
2022/06/06 02:01:11;;;;;;;470.30;452.03;;;15.90;99.90;;;;;;5015499;28;21009;-80
2022/06/06 02:03:38;;;;;;;445.37;427.83;;;15.90;99.90;;;;;;5016148;28;20450;-80
2022/06/06 02:06:06;;;;;;;389.73;375.53;;;15.90;99.90;;;;;;5015419;28;20844;-80
2022/06/06 02:08:33;;;;;;;362.03;348.93;;;15.90;99.90;;;;;;5015099;28;20455;-80
2022/06/06 02:11:00;;;;;;;367.47;354.13;;;15.90;99.90;;;;;;5015344;28;20482;-80
2022/06/06 02:13:28;;;;;;;364.50;350.90;;;15.90;99.90;;;;;;5014939;28;20480;-80
2022/06/06 02:15:54;;;;;;;391.50;376.93;;;15.80;99.90;;;;;;5015157;28;20464;-80
2022/06/06 02:18:23;;;;;;;375.50;362.23;;;15.80;99.90;;;;;;5014848;28;20469;-80
2022/06/06 02:20:50;;;;;;;379.50;364.80;;;15.80;99.90;;;;;;5015204;28;20483;-80
2022/06/06 02:23:17;;;;;;;336.80;324.93;;;15.90;99.90;;;;;;4995893;28;20467;-83
2022/06/06 02:25:44;;;;;;;301.90;291.80;;;15.90;99.90;;;;;;4996272;28;20460;-80
2022/06/06 02:28:11;;;;;;;266.57;256.83;;;15.90;99.90;;;;;;5014035;28;20495;-81
2022/06/06 02:30:39;;;;;;;262.50;253.20;;;16.00;99.90;;;;;;5014610;28;20475;-80
2022/06/06 02:33:06;;;;;;;215.00;206.70;;;16.00;99.90;;;;;;5015237;28;20467;-80
2022/06/06 02:35:37;;;;;;;246.53;237.70;;;15.90;99.90;;;;;;5015318;28;20486;-80
2022/06/06 02:38:04;;;;;;;199.60;191.63;;;15.90;99.90;;;;;;5015386;28;20517;-80
2022/06/06 02:40:31;;;;;;;201.87;194.80;;;15.90;99.90;;;;;;5014542;28;20487;-80
2022/06/06 02:42:58;;;;;;;162.43;156.33;;;15.80;99.90;;;;;;5015350;28;20467;-80
2022/06/06 02:45:25;;;;;;;185.77;178.90;;;15.90;99.90;;;;;;5014578;28;20454;-80
2022/06/06 02:47:54;;;;;;;216.70;209.27;;;15.80;99.90;;;;;;5018794;28;20458;-82
2022/06/06 02:50:25;;;;;;;184.27;177.60;;;15.70;99.90;;;;;;5017415;28;20482;-79
2022/06/06 02:52:53;;;;;;;166.67;160.57;;;15.80;99.90;;;;;;5013069;28;20457;-80
2022/06/06 02:55:20;;;;;;;195.53;188.33;;;15.70;99.90;;;;;;5012619;28;20478;-80
2022/06/06 02:57:49;;;;;;;163.60;156.97;;;15.70;99.90;;;;;;5013038;28;20454;-82
2022/06/06 03:00:20;;;;;;;144.73;139.03;;;15.70;99.90;;;;;;5014058;28;20501;-80
2022/06/06 03:02:47;;;;;;;161.77;155.87;;;15.80;99.90;;;;;;5012943;28;20539;-81
2022/06/06 03:05:14;;;;;;;161.37;155.20;;;15.70;99.90;;;;;;5030143;28;20832;-80
2022/06/06 03:07:54;;;;;;;177.43;170.87;;;15.80;99.90;;;;;;5014409;28;20508;-80
2022/06/06 03:10:32;;;;;;;139.83;134.23;;;15.70;99.90;;;;;;5012588;28;20482;-82
2022/06/06 03:13:10;;;;;;;177.73;171.17;;;15.70;99.90;;;;;;5014546;28;20548;-80
2022/06/06 03:21:48;;;;;;;254.53;245.93;;;15.60;99.90;;;;;;4956659;29;20890;-79
2022/06/06 03:24:26;;;;;;;269.90;260.90;;;15.70;99.90;;;;;;4990230;28;20915;-78
2022/06/06 03:27:09;;;;;;;249.63;241.17;;;15.60;99.90;;;;;;4996447;28;20443;-79
2022/06/06 03:29:54;;;;;;;238.00;229.97;;;15.70;99.90;;;;;;4997105;28;20436;-79
2022/06/06 03:32:29;;;;;;;272.47;263.37;;;15.70;99.90;;;;;;4996944;28;20460;-80
2022/06/06 03:35:06;;;;;;;216.97;209.23;;;15.60;99.90;;;;;;4995285;28;20483;-78
2022/06/06 03:37:41;;;;;;;153.63;147.77;;;15.70;99.90;;;;;;5016967;28;20447;-79
2022/06/06 03:40:18;;;;;;;167.57;161.47;;;15.60;99.90;;;;;;5017112;28;20490;-79
2022/06/06 03:42:56;;;;;;;143.80;137.60;;;15.70;99.90;;;;;;5016874;28;20446;-79
2022/06/06 03:45:29;;;;;;;103.60;98.90;;;15.70;99.90;;;;;;5018489;28;20443;-79
2022/06/06 03:48:04;;;;;;;107.07;102.27;;;15.60;99.90;;;;;;5017777;28;20442;-79
2022/06/06 03:50:42;;;;;;;106.53;102.07;;;15.70;99.90;;;;;;5014892;28;20515;-81
2022/06/06 03:53:15;;;;;;;76.93;73.13;;;15.70;99.90;;;;;;5015644;28;20453;-78
2022/06/06 03:55:54;;;;;;;69.33;65.63;;;15.70;99.90;;;;;;5013828;28;20490;-77
2022/06/06 03:58:23;;;;;;;65.63;61.77;;;15.70;99.90;;;;;;5014020;28;20442;-78
2022/06/06 04:00:52;;;;;;;54.30;51.17;;;15.70;99.90;;;;;;5013823;28;21073;-78
2022/06/06 04:03:19;;;;;;;60.33;57.27;;;15.70;99.90;;;;;;5013609;28;20466;-78
2022/06/06 04:05:47;;;;;;;42.57;39.83;;;15.80;99.90;;;;;;5013454;28;20450;-78
2022/06/06 04:08:13;;;;;;;43.27;40.83;;;15.70;99.90;;;;;;5013148;28;20462;-77
2022/06/06 04:10:51;;;;;;;36.27;33.80;;;15.80;99.90;;;;;;5018040;28;20471;-83
2022/06/06 04:13:34;;;;;;;24.07;22.27;;;15.80;99.90;;;;;;5013662;28;20447;-78
2022/06/06 04:16:13;;;;;;;32.60;30.03;;;15.80;99.90;;;;;;5013424;28;20465;-78
2022/06/06 04:18:52;;;;;;;31.00;28.60;;;15.70;99.90;;;;;;5012717;28;20889;-78
2022/06/06 04:21:32;;;;;;;27.47;25.10;;;15.70;99.90;;;;;;5012209;28;20862;-78
2022/06/06 04:24:15;;;;;;;35.33;32.93;;;15.60;99.90;;;;;;5013341;28;20442;-78
2022/06/06 04:26:50;;;;;;;52.03;49.17;;;15.60;99.90;;;;;;5013363;28;20822;-78
2022/06/06 04:29:25;;;;;;;51.33;48.37;;;15.60;99.90;;;;;;5029293;28;20442;-78
2022/06/06 04:32:01;;;;;;;38.77;36.27;;;15.60;99.90;;;;;;5020560;28;20470;-78
2022/06/06 04:34:34;;;;;;;36.13;33.83;;;15.60;99.90;;;;;;5013234;28;20473;-79
2022/06/06 04:37:08;;;;;;;29.43;27.03;;;15.60;99.90;;;;;;5012741;28;20461;-78
2022/06/06 04:39:40;;;;;;;28.03;25.70;;;15.70;99.90;;;;;;5012459;28;20450;-78
2022/06/06 04:42:14;;;;;;;21.17;19.57;;;15.60;99.90;;;;;;5013430;28;20450;-79
2022/06/06 04:44:51;;;;;;;20.40;18.60;;;15.70;99.90;;;;;;5013065;28;20432;-78
2022/06/06 04:47:25;;;;;;;19.47;17.50;;;15.60;99.90;;;;;;5014698;28;20458;-81
2022/06/06 04:49:55;;;;;;;15.60;13.43;;;15.50;99.90;;;;;;5013920;28;20471;-81
2022/06/06 04:52:23;;;;;;;14.17;11.83;;;15.50;99.90;;;;;;5014488;28;20448;-81
2022/06/06 04:54:51;;;;;;;17.03;12.50;;;15.50;99.90;;;;;;5016894;28;20477;-81
2022/06/06 04:57:20;;;;;;;18.20;14.87;;;15.50;99.90;;;;;;5020621;28;20463;-81
2022/06/06 04:59:49;;;;;;;16.20;13.90;;;15.40;99.90;;;;;;5020247;28;20450;-81
2022/06/06 05:02:16;;;;;;;18.47;16.47;;;15.30;99.90;;;;;;5021323;28;20853;-83
2022/06/06 05:04:43;;;;;;;22.57;17.20;;;15.30;99.90;;;;;;5021541;28;20524;-81
2022/06/06 05:07:32;;;;;;;25.23;23.13;;;15.30;99.90;;;;;;5020605;28;20458;-81
2022/06/06 05:10:11;;;;;;;31.93;29.50;;;15.40;99.90;;;;;;5006935;28;20855;-81
2022/06/06 05:13:06;;;;;;;20.00;16.20;;;15.50;99.90;;;;;;5031746;28;20452;-83
2022/06/06 05:15:42;;;;;;;13.90;11.30;;;15.50;99.90;;;;;;5016669;28;20467;-81
2022/06/06 05:18:29;;;;;;;14.57;11.47;;;15.50;99.90;;;;;;5006394;28;20454;-80
2022/06/06 05:21:09;;;;;;;14.03;10.80;;;15.50;99.90;;;;;;5011319;28;20703;-81
2022/06/06 05:24:01;;;;;;;14.13;10.93;;;15.30;99.90;;;;;;5020010;28;20832;-81
2022/06/06 05:26:54;;;;;;;11.43;9.87;;;15.30;99.90;;;;;;5021053;28;20972;-81
2022/06/06 05:29:36;;;;;;;17.00;14.70;;;15.20;99.90;;;;;;5018049;28;20460;-82
2022/06/06 05:32:21;;;;;;;14.70;12.13;;;15.20;99.90;;;;;;5019621;28;20943;-82
2022/06/06 05:34:53;;;;;;;12.03;10.37;;;15.20;99.90;;;;;;5019678;28;20477;-81
2022/06/06 05:37:37;;;;;;;12.30;9.13;;;15.50;99.90;;;;;;5018484;28;20465;-81
2022/06/06 05:40:16;;;;;;;12.23;7.13;;;16.00;99.90;;;;;;5018830;28;20547;-81
2022/06/06 05:42:55;;;;;;;11.30;6.30;;;16.50;99.90;;;;;;5013442;28;20445;-82
2022/06/06 05:45:31;;;;;;;9.63;5.33;;;17.00;99.90;;;;;;5018716;28;20446;-81
2022/06/06 05:48:12;;;;;;;9.63;5.50;;;17.60;99.90;;;;;;5035675;28;20447;-81
2022/06/06 05:50:51;;;;;;;12.43;6.27;;;18.00;99.90;;;;;;5040245;28;20472;-84
2022/06/06 05:53:30;;;;;;;10.00;5.40;;;18.60;96.70;;;;;;5031794;28;20456;-82
2022/06/06 05:56:32;;;;;;;9.80;5.60;;;18.80;93.30;;;;;;5021638;28;20491;-82
2022/06/06 05:59:08;;;;;;;9.10;5.30;;;19.00;91.30;;;;;;5018204;28;20460;-82
2022/06/06 06:01:48;;;;;;;9.77;5.17;;;18.40;91.50;;;;;;5021068;28;20475;-85
2022/06/06 06:04:36;;;;;;;10.80;5.07;;;18.20;91.80;;;;;;5020906;28;20448;-81
2022/06/06 06:07:13;;;;;;;10.63;4.57;;;18.20;93.20;;;;;;5012408;28;20451;-82
2022/06/06 06:10:05;;;;;;;6.50;3.97;;;18.40;91.30;;;;;;5014208;28;20441;-82
2022/06/06 06:13:00;;;;;;;15.20;3.97;;;18.70;91.20;;;;;;5029689;28;20448;-81
2022/06/06 06:15:33;;;;;;;7.27;3.40;;;18.50;86.30;;;;;;5009867;28;20479;-81
2022/06/06 06:18:07;;;;;;;9.07;4.53;;;18.20;84.80;;;;;;5031225;28;20984;-81
2022/06/06 06:20:41;;;;;;;7.97;3.70;;;18.10;86.70;;;;;;5036845;28;20486;-82
2022/06/06 06:23:26;;;;;;;5.30;2.63;;;18.50;83.20;;;;;;5020765;28;20808;-81
2022/06/06 06:26:00;;;;;;;10.23;3.00;;;18.90;79.40;;;;;;5017153;28;20783;-83
2022/06/06 06:28:33;;;;;;;6.40;3.23;;;18.90;76.90;;;;;;5016886;28;20918;-81
2022/06/06 06:31:08;;;;;;;10.30;3.37;;;18.90;77.20;;;;;;5017951;28;20578;-82
2022/06/06 06:33:48;;;;;;;7.43;4.07;;;18.70;75.70;;;;;;5017664;28;20456;-85
2022/06/06 06:36:33;;;;;;;6.33;2.50;;;19.00;73.90;;;;;;5018476;28;20480;-82
2022/06/06 06:39:17;;;;;;;6.87;3.27;;;19.20;72.10;;;;;;4998491;28;20576;-82
2022/06/06 06:41:57;;;;;;;7.07;3.20;;;19.50;69.30;;;;;;5000447;28;20517;-82
2022/06/06 06:44:29;;;;;;;7.27;2.73;;;19.80;65.20;;;;;;5017596;28;20840;-84
2022/06/06 06:46:58;;;;;;;6.13;2.33;;;19.90;60.10;;;;;;5017965;28;20453;-82
2022/06/06 06:49:36;;;;;;;9.43;3.03;;;19.90;61.00;;;;;;5016538;28;20524;-82
2022/06/06 06:52:22;;;;;;;5.10;1.87;;;19.70;58.20;;;;;;5017167;28;20457;-81
2022/06/06 06:55:06;;;;;;;5.87;2.40;;;19.90;57.00;;;;;;5017645;28;20806;-82
2022/06/06 06:57:54;;;;;;;7.00;2.60;;;19.80;55.50;;;;;;5017019;28;20540;-82
2022/06/06 07:00:28;;;;;;;6.00;2.50;;;20.10;58.70;;;;;;5016043;28;20570;-83
2022/06/06 07:09:04;;;;;;;6.60;2.57;;;20.30;52.20;;;;;;5020936;28;20448;-82
2022/06/06 07:11:47;;;;;;;5.03;2.37;;;20.30;51.40;;;;;;5016622;28;20474;-84
2022/06/06 07:14:26;;;;;;;6.53;2.73;;;20.20;54.10;;;;;;5022201;28;20463;-81
2022/06/06 07:16:58;;;;;;;4.77;1.83;;;20.40;53.60;;;;;;5017771;28;21021;-83
2022/06/06 07:19:32;;;;;;;5.43;1.80;;;20.60;52.00;;;;;;5014693;28;20456;-82
2022/06/06 07:22:01;;;;;;;5.80;2.27;;;20.60;49.50;;;;;;5016952;28;20490;-82
2022/06/06 07:24:31;;;;;;;4.70;1.60;;;20.40;48.40;;;;;;5019950;28;20479;-82
2022/06/06 07:26:59;;;;;;;8.07;1.80;;;20.30;49.20;;;;;;5017171;28;20462;-84
2022/06/06 07:29:26;;;;;;;5.90;1.40;;;20.30;46.70;;;;;;5014747;28;20455;-85
2022/06/06 07:32:08;;;;;;;6.30;1.80;;;20.40;46.30;;;;;;5013037;28;20482;-82
2022/06/06 07:34:55;;;;;;;5.57;1.73;;;20.30;42.70;;;;;;5014497;28;20464;-82
2022/06/06 07:37:33;;;;;;;4.63;1.53;;;20.80;43.80;;;;;;5015344;28;20498;-84
2022/06/06 07:40:19;;;;;;;6.97;1.90;;;20.60;41.10;;;;;;5023141;28;20524;-84
2022/06/06 07:42:57;;;;;;;5.00;1.50;;;20.60;44.80;;;;;;5019800;28;20478;-80
2022/06/06 07:45:28;;;;;;;5.10;2.00;;;20.80;46.30;;;;;;5019537;28;20452;-83
2022/06/06 07:48:21;;;;;;;5.13;2.17;;;20.90;47.60;;;;;;5017456;28;20457;-83
2022/06/06 07:50:57;;;;;;;5.43;1.43;;;21.10;40.50;;;;;;5018388;28;20996;-84
2022/06/06 07:53:31;;;;;;;5.47;1.73;;;21.40;41.20;;;;;;5018172;28;20465;-83
2022/06/06 07:56:07;;;;;;;5.53;1.90;;;21.90;40.80;;;;;;5017250;28;20461;-83
2022/06/06 07:58:44;;;;;;;4.90;1.80;;;22.30;39.60;;;;;;5017338;28;20451;-83
2022/06/06 08:01:22;;;;;;;5.70;1.67;;;22.10;37.30;;;;;;5020378;28;20481;-83
2022/06/06 08:03:51;;;;;;;5.00;1.50;;;21.90;35.90;;;;;;5018591;28;20473;-81
2022/06/06 08:06:35;;;;;;;6.10;1.80;;;21.30;33.50;;;;;;5027140;28;20608;-82
2022/06/06 08:09:56;;;;;;;4.97;1.50;;;21.50;39.10;;;;;;5027603;28;20527;-81
2022/06/06 08:12:49;;;;;;;5.78;1.45;;;21.50;36.70;;;;;;4974908;28;20450;-82
2022/06/06 08:15:25;;;;;;;5.63;1.57;;;21.80;31.50;;;;;;4977281;28;20210;-83
2022/06/06 08:18:11;;;;;;;4.80;1.90;;;21.50;30.50;;;;;;5005026;28;20455;-82
2022/06/06 08:20:48;;;;;;;5.30;1.87;;;21.70;33.90;;;;;;5018689;28;20505;-83
2022/06/06 08:23:17;;;;;;;4.70;1.60;;;22.20;32.60;;;;;;5020051;28;20506;-83
2022/06/06 08:25:47;;;;;;;6.37;1.73;;;22.00;33.70;;;;;;5016768;28;20464;-82
2022/06/06 08:28:16;;;;;;;5.20;1.43;;;22.00;32.90;;;;;;5017032;28;20473;-82
2022/06/06 08:30:46;;;;;;;4.87;1.23;;;22.10;31.60;;;;;;5016885;28;20857;-83
2022/06/06 08:33:13;;;;;;;8.73;1.47;;;22.50;31.90;;;;;;5018313;28;20451;-85
2022/06/06 08:35:53;;;;;;;4.47;1.30;;;22.30;28.70;;;;;;5018426;28;20578;-83
2022/06/06 08:38:30;;;;;;;5.73;1.63;;;22.10;30.00;;;;;;5018142;28;20451;-83
2022/06/06 08:41:14;;;;;;;4.67;1.47;;;21.80;30.90;;;;;;5017505;28;20483;-83
2022/06/06 08:44:06;;;;;;;4.73;1.40;;;21.10;27.80;;;;;;5016743;28;20442;-82
2022/06/06 08:46:45;;;;;;;4.17;1.23;;;21.10;29.30;;;;;;5017113;28;20454;-82
2022/06/06 08:52:22;;;;;;;4.00;1.20;;;21.70;27.70;;;;;;5018622;28;20458;-83
2022/06/06 08:55:11;;;;;;;4.10;1.40;;;21.90;29.00;;;;;;5018444;28;20458;-83
2022/06/06 08:58:04;;;;;;;5.40;1.93;;;22.00;28.50;;;;;;5018403;28;20432;-83
2022/06/06 09:00:43;;;;;;;4.37;1.37;;;22.50;29.40;;;;;;5017157;28;20467;-82
2022/06/06 09:03:39;;;;;;;4.03;1.08;;;23.30;27.70;;;;;;5018816;28;20450;-83
2022/06/06 09:06:29;;;;;;;3.80;1.20;;;24.00;22.60;;;;;;5018548;28;20217;-85
2022/06/06 09:09:29;;;;;;;5.70;1.10;;;24.20;22.80;;;;;;5018680;28;20463;-82
2022/06/06 09:12:42;;;;;;;7.80;1.17;;;23.70;19.90;;;;;;5018603;28;20477;-83
2022/06/06 09:15:58;;;;;;;4.93;1.20;;;23.20;22.00;;;;;;5018834;28;20437;-83
2022/06/06 09:19:08;;;;;;;4.03;0.80;;;23.80;21.00;;;;;;5018555;28;20468;-83
2022/06/06 09:22:07;;;;;;;3.90;1.00;;;22.80;17.90;;;;;;5019607;28;20472;-84
2022/06/06 09:24:57;;;;;;;4.17;0.97;;;22.50;18.40;;;;;;5018457;28;20472;-82
2022/06/06 09:27:52;;;;;;;3.90;1.00;;;22.20;19.10;;;;;;5018694;28;20452;-83
2022/06/06 09:30:35;;;;;;;5.50;0.90;;;21.80;21.30;;;;;;5016406;28;20468;-84
2022/06/06 09:33:38;;;;;;;5.03;1.10;;;21.30;22.00;;;;;;5017328;28;20446;-82
2022/06/06 09:36:23;;;;;;;3.93;0.97;;;21.20;25.20;;;;;;5017692;28;20506;-82
2022/06/06 09:39:02;;;;;;;4.30;1.23;;;21.60;22.60;;;;;;5017263;28;20464;-83
2022/06/06 09:41:38;;;;;;;3.70;0.90;;;21.90;23.40;;;;;;5019639;28;20488;-82
2022/06/06 09:44:32;;;;;;;4.40;1.10;;;22.10;24.40;;;;;;5021839;28;20450;-82
2022/06/06 09:47:39;;;;;;;5.90;1.33;;;22.40;22.90;;;;;;5021790;28;20456;-82
2022/06/06 09:50:36;;;;;;;4.53;1.00;;;22.60;23.20;;;;;;5019884;28;20479;-82
2022/06/06 09:53:39;;;;;;;3.77;0.93;;;23.30;22.10;;;;;;5022043;28;20452;-83
2022/06/06 09:59:55;;;;;;;4.63;1.10;;;22.60;20.40;;;;;;5019792;28;20521;-83
2022/06/06 10:03:07;;;;;;;4.50;1.20;;;23.30;22.10;;;;;;4989975;28;20965;-82
2022/06/06 10:06:04;;;;;;;4.07;0.93;;;25.10;19.50;;;;;;5021185;28;20448;-83
2022/06/06 10:09:15;;;;;;;3.80;0.80;;;25.40;16.00;;;;;;5021400;28;20976;-82
2022/06/06 10:12:26;;;;;;;4.60;1.03;;;24.70;13.70;;;;;;5021867;28;20476;-83
2022/06/06 10:15:18;;;;;;;8.17;1.23;;;25.20;15.90;;;;;;5022842;28;20569;-84
2022/06/06 10:18:27;;;;;;;4.87;1.63;;;24.80;17.20;;;;;;5023270;28;21001;-86
2022/06/06 10:21:10;;;;;;;4.07;1.00;;;23.70;16.40;;;;;;5004590;28;20942;-83
2022/06/06 10:24:01;;;;;;;8.20;1.00;;;23.00;15.50;;;;;;5020645;28;20544;-83
2022/06/06 10:26:49;;;;;;;4.30;1.03;;;22.80;18.20;;;;;;5021002;28;20448;-85
2022/06/06 10:33:17;;;;;;;3.70;1.03;;;23.00;19.10;;;;;;5023485;28;20420;-84
2022/06/06 10:35:54;;;;;;;5.70;1.23;;;24.10;20.00;;;;;;4931202;29;20456;-83
2022/06/06 10:38:57;;;;;;;4.83;1.33;;;24.30;15.90;;;;;;5017825;28;20463;-83
2022/06/06 10:41:43;;;;;;;4.33;1.57;;;23.50;16.90;;;;;;5022695;28;20485;-83
2022/06/06 10:44:40;;;;;;;5.13;0.97;;;22.90;18.20;;;;;;5022605;28;20456;-83
2022/06/06 10:47:21;;;;;;;5.03;1.50;;;22.90;19.00;;;;;;5019814;28;20461;-85
2022/06/06 10:49:55;;;;;;;4.93;1.10;;;22.50;22.40;;;;;;5021671;28;20459;-83
2022/06/06 10:52:59;;;;;;;4.30;1.10;;;22.40;19.60;;;;;;5021324;28;20456;-83
2022/06/06 10:56:08;;;;;;;6.57;1.13;;;22.60;17.90;;;;;;5022226;28;20458;-82
2022/06/06 10:59:05;;;;;;;3.80;0.80;;;24.00;17.50;;;;;;5021213;28;20456;-82
2022/06/06 11:02:20;;;;;;;4.90;1.23;;;24.50;14.60;;;;;;5022533;28;20512;-83
2022/06/06 11:05:39;;;;;;;4.50;1.60;;;25.20;12.70;;;;;;5023161;28;20449;-83
2022/06/06 11:08:37;;;;;;;3.80;1.00;;;26.30;8.80;;;;;;4987457;28;20460;-83
2022/06/06 11:11:43;;;;;;;6.37;1.80;;;27.00;11.90;;;;;;5023082;28;20464;-86
2022/06/06 11:14:19;;;;;;;5.23;1.10;;;27.60;1.90;;;;;;5022203;28;20456;-83
2022/06/06 11:17:21;;;;;;;3.90;1.00;;;26.70;3.10;;;;;;5022743;28;20476;-83
2022/06/06 11:20:24;;;;;;;3.90;0.90;;;26.80;5.70;;;;;;5020430;28;20472;-83
2022/06/06 11:23:00;;;;;;;4.17;1.20;;;27.70;6.10;;;;;;5021137;28;20536;-83
2022/06/06 11:25:27;;;;;;;3.93;1.00;;;26.90;1.40;;;;;;5022781;28;20870;-83
2022/06/06 11:28:29;;;;;;;6.10;1.20;;;26.70;2.80;;;;;;5022651;28;20441;-83
2022/06/06 11:31:30;;;;;;;4.20;1.40;;;26.10;6.70;;;;;;5021671;28;20468;-83
2022/06/06 11:34:53;;;;;;;4.50;1.10;;;24.80;6.10;;;;;;5020891;28;20423;-82
2022/06/06 11:37:49;;;;;;;4.87;1.77;;;23.20;12.90;;;;;;4958523;29;20479;-82
2022/06/06 11:40:35;;;;;;;7.17;1.30;;;22.00;15.20;;;;;;5015970;28;20481;-83
2022/06/06 11:43:42;;;;;;;6.57;1.37;;;21.80;21.00;;;;;;5018357;28;20460;-84
2022/06/06 11:46:44;;;;;;;5.60;1.20;;;21.50;22.40;;;;;;4987867;28;20980;-82
2022/06/06 11:49:50;;;;;;;6.93;1.50;;;22.50;23.10;;;;;;5016949;28;20456;-82
2022/06/06 11:52:42;;;;;;;6.30;1.17;;;22.60;19.40;;;;;;5000524;28;20463;-83
2022/06/06 11:55:34;;;;;;;9.80;1.40;;;23.80;18.00;;;;;;5020228;28;20445;-84
2022/06/06 11:58:28;;;;;;;5.70;1.20;;;24.70;15.60;;;;;;5018850;28;20455;-84
2022/06/06 12:01:15;;;;;;;4.23;1.10;;;23.80;13.20;;;;;;5015149;28;20599;-81
2022/06/06 12:04:23;;;;;;;4.53;1.50;;;23.30;14.60;;;;;;5013168;28;20433;-81
2022/06/06 12:07:20;;;;;;;5.30;1.43;;;23.40;17.70;;;;;;5012742;28;20444;-82
2022/06/06 12:09:55;;;;;;;4.17;1.50;;;24.50;13.80;;;;;;4971990;28;20459;-82
2022/06/06 12:12:49;;;;;;;5.40;1.43;;;24.10;12.40;;;;;;5014698;28;20461;-81
2022/06/06 12:15:51;;;;;;;4.23;1.13;;;23.80;13.70;;;;;;4990245;28;20454;-80
2022/06/06 12:18:31;;;;;;;7.60;1.23;;;23.10;11.10;;;;;;5013673;28;20837;-80
2022/06/06 12:21:22;;;;;;;4.80;1.57;;;22.40;13.80;;;;;;5014055;28;20473;-81
2022/06/06 12:24:16;;;;;;;4.17;1.17;;;21.80;15.40;;;;;;5013901;28;20467;-81
2022/06/06 12:26:59;;;;;;;4.40;1.30;;;21.80;17.70;;;;;;4981812;28;20474;-80
2022/06/06 12:29:55;;;;;;;6.83;1.20;;;21.50;16.50;;;;;;5014640;28;20862;-83
2022/06/06 12:32:34;;;;;;;4.77;1.40;;;21.40;17.80;;;;;;5014899;28;20460;-82
2022/06/06 12:35:07;;;;;;;5.30;1.57;;;21.50;17.40;;;;;;5018296;28;20441;-82
2022/06/06 12:37:45;;;;;;;4.00;1.10;;;23.20;15.60;;;;;;5017300;28;20475;-83
2022/06/06 12:40:26;;;;;;;4.80;1.77;;;25.00;11.70;;;;;;5016569;28;20465;-82
2022/06/06 12:43:02;;;;;;;5.27;1.13;;;26.20;8.80;;;;;;5019686;28;20449;-83
2022/06/06 12:45:45;;;;;;;5.00;1.20;;;27.10;5.30;;;;;;5018768;28;20874;-83
2022/06/06 12:48:38;;;;;;;4.40;1.17;;;28.20;1.30;;;;;;5019455;28;20452;-84
2022/06/06 12:51:18;;;;;;;5.40;1.43;;;29.00;1.00;;;;;;5020028;28;20523;-83
2022/06/06 12:54:08;;;;;;;4.97;1.10;;;27.80;1.00;;;;;;5018418;28;20511;-83
2022/06/06 12:56:52;;;;;;;4.00;0.93;;;29.20;1.00;;;;;;5021543;28;20487;-83
2022/06/06 12:59:42;;;;;;;3.70;0.97;;;29.10;1.00;;;;;;5019374;28;20452;-84
2022/06/06 13:02:24;;;;;;;4.20;1.20;;;28.30;1.00;;;;;;5018583;28;20461;-83
2022/06/06 13:05:08;;;;;;;3.90;0.90;;;26.40;1.00;;;;;;5019085;28;20452;-83
2022/06/06 13:07:53;;;;;;;3.77;0.80;;;25.90;1.00;;;;;;5018013;28;20426;-84
2022/06/06 13:10:35;;;;;;;7.57;1.20;;;26.20;1.00;;;;;;5016161;28;20512;-82
2022/06/06 13:13:25;;;;;;;4.83;1.43;;;26.90;1.00;;;;;;5020533;28;20437;-81
2022/06/06 13:16:01;;;;;;;5.40;1.00;;;26.30;1.00;;;;;;5022080;28;20468;-81
2022/06/06 13:18:44;;;;;;;4.50;1.37;;;26.20;1.00;;;;;;5023633;28;20480;-80
2022/06/06 13:21:18;;;;;;;3.93;1.10;;;25.70;1.00;;;;;;5025707;28;20481;-81
2022/06/06 13:24:06;;;;;;;5.33;0.80;;;25.10;1.00;;;;;;5025486;28;20457;-81
2022/06/06 13:26:47;;;;;;;8.00;1.20;;;24.90;1.00;;;;;;5026089;28;20437;-81
2022/06/06 13:29:27;;;;;;;5.70;1.00;;;25.60;1.00;;;;;;5025399;28;20452;-81
2022/06/06 13:32:07;;;;;;;3.83;0.93;;;26.60;1.00;;;;;;5026077;28;20468;-81
2022/06/06 13:34:48;;;;;;;4.30;1.00;;;27.10;1.00;;;;;;5025901;28;20441;-80
2022/06/06 13:37:24;;;;;;;4.67;1.00;;;27.70;1.00;;;;;;5025588;28;20464;-81
2022/06/06 13:40:17;;;;;;;3.70;0.80;;;28.20;1.00;;;;;;5025353;28;20445;-81
2022/06/06 13:46:48;;;;;;;5.10;1.00;;;29.60;1.00;;;;;;4907177;29;20473;-86
2022/06/06 13:49:43;;;;;;;4.30;0.90;;;28.20;1.00;;;;;;5024829;28;20431;-85
2022/06/06 13:52:24;;;;;;;3.73;0.87;;;27.20;1.00;;;;;;5122416;22;20472;-84
2022/06/06 13:54:51;;;;;;;3.93;0.90;;;27.10;1.00;;;;;;5063609;28;20443;-87
2022/06/06 13:57:24;;;;;;;4.20;1.10;;;26.00;1.00;;;;;;5063880;28;20443;-85
2022/06/06 14:00:08;;;;;;;3.90;0.90;;;25.80;1.00;;;;;;5064352;28;20451;-85
2022/06/06 14:02:59;;;;;;;5.70;1.23;;;26.60;1.00;;;;;;5065938;28;20471;-86
2022/06/06 14:06:16;;;;;;;4.10;0.90;;;27.50;1.00;;;;;;5061844;28;20477;-85
2022/06/06 14:08:54;;;;;;;4.07;1.00;;;27.80;1.00;;;;;;4989036;28;20485;-86